createdAt,value
2023-02-24T00:00:00.632Z,967
2023-02-24T00:15:00.670Z,967
2023-02-24T00:30:00.712Z,966
2023-02-24T00:45:00.670Z,966
2023-02-24T01:00:00.747Z,967
2023-02-24T01:15:00.685Z,966
2023-02-24T01:30:00.777Z,966
2023-02-24T01:45:01.058Z,966
2023-02-24T02:00:00.702Z,966
2023-02-24T02:15:00.666Z,966
2023-02-24T02:30:00.739Z,966
2023-02-24T02:45:00.657Z,966
2023-02-24T03:00:00.681Z,966
2023-02-24T03:15:00.706Z,966
2023-02-24T03:30:00.657Z,966
2023-02-24T03:45:00.685Z,966
2023-02-24T04:00:00.652Z,965
2023-02-24T04:15:00.682Z,965
2023-02-24T04:30:00.748Z,965
2023-02-24T04:45:00.636Z,965
2023-02-24T05:00:00.639Z,965
2023-02-24T05:15:00.680Z,965
2023-02-24T05:30:00.726Z,964
2023-02-24T05:45:00.662Z,964
2023-02-24T06:00:00.727Z,964
2023-02-24T06:15:00.707Z,964
2023-02-24T06:30:00.737Z,964
2023-02-24T06:45:00.653Z,965
2023-02-24T07:00:00.650Z,965
2023-02-24T07:15:00.615Z,964
2023-02-24T07:30:00.754Z,965
2023-02-24T07:45:00.788Z,965
2023-02-24T08:00:00.641Z,964
2023-02-24T08:15:00.644Z,964
2023-02-24T08:30:00.702Z,964
2023-02-24T08:45:00.766Z,963
2023-02-24T09:00:00.661Z,963
2023-02-24T09:15:00.690Z,963
2023-02-24T09:30:00.613Z,963
2023-02-24T09:45:00.669Z,963
2023-02-24T10:00:00.751Z,963
2023-02-24T10:15:00.952Z,963
2023-02-24T10:30:00.693Z,962
2023-02-24T10:45:03.531Z,962
2023-02-24T11:00:00.714Z,962
2023-02-24T11:15:00.713Z,962
2023-02-24T11:30:01.012Z,961
2023-02-24T11:45:00.802Z,961
2023-02-24T12:00:00.645Z,961
2023-02-24T12:15:00.732Z,961
2023-02-24T12:30:00.671Z,960
2023-02-24T12:45:00.671Z,960
2023-02-24T13:00:00.687Z,960
2023-02-24T13:15:00.673Z,960
2023-02-24T13:30:00.717Z,959
2023-02-24T13:45:00.702Z,959
2023-02-24T14:00:00.658Z,959
2023-02-24T14:15:00.747Z,959
2023-02-24T14:30:00.692Z,959
2023-02-24T14:45:00.630Z,959
2023-02-24T15:00:00.678Z,959
2023-02-24T15:15:00.724Z,958
2023-02-24T15:30:00.697Z,958
2023-02-24T15:45:00.989Z,959
2023-02-24T16:00:00.670Z,958
2023-02-24T16:15:00.844Z,958
2023-02-24T16:30:00.777Z,958
2023-02-24T16:45:00.641Z,958
2023-02-24T17:00:00.953Z,958
2023-02-24T17:15:00.680Z,958
2023-02-24T17:30:00.669Z,957
2023-02-24T17:45:00.666Z,957
2023-02-24T18:00:00.664Z,957
2023-02-24T18:15:09.841Z,957
2023-02-24T18:30:00.682Z,958
2023-02-24T18:45:00.652Z,958
2023-02-24T19:00:00.647Z,957
2023-02-24T19:15:00.693Z,957
2023-02-24T19:30:00.626Z,957
2023-02-24T19:45:00.647Z,957
2023-02-24T20:00:00.642Z,956
2023-02-24T20:15:00.715Z,957
2023-02-24T20:30:00.676Z,956
2023-02-24T20:45:00.609Z,956
2023-02-24T21:00:04.351Z,956
2023-02-24T21:15:00.635Z,956
2023-02-24T21:30:00.606Z,956
2023-02-24T21:45:00.598Z,956
2023-02-24T22:00:00.618Z,956
2023-02-24T22:15:00.682Z,955
2023-02-24T22:30:00.607Z,955
2023-02-24T22:45:00.681Z,955
2023-02-24T23:00:00.807Z,955
2023-02-24T23:15:00.677Z,955
2023-02-24T23:30:00.576Z,955
2023-02-24T23:45:00.593Z,954
